Time;durP1;ratioP1;P1;durP2;ratioP2;P2;SDS_P1;SDS_P2;PMS_P1;PMS_P2;Temp;Humidity;BMP_temperature;BMP_pressure;BME280_temperature;BME280_humidity;BME280_pressure;Samples;Min_cycle;Max_cycle;Signal;HPM_P1;HPM_P2
2021/01/05 00:02:27;;;;;;;6.15;5.05;;;6.90;96.70;;;;;;5067341;28;20052;-76
2021/01/05 00:04:55;;;;;;;8.07;5.70;;;6.90;96.70;;;;;;5068764;28;20829;-76
2021/01/05 00:07:22;;;;;;;7.15;5.30;;;6.80;96.70;;;;;;5059286;28;20063;-76
2021/01/05 00:09:50;;;;;;;6.38;5.15;;;6.80;96.70;;;;;;5060589;28;20045;-75
2021/01/05 00:12:18;;;;;;;7.40;4.97;;;6.70;96.70;;;;;;5067891;28;20040;-76
2021/01/05 00:14:47;;;;;;;7.28;5.25;;;6.70;96.70;;;;;;5062631;28;20106;-76
2021/01/05 00:17:16;;;;;;;7.18;4.82;;;6.80;96.70;;;;;;5067892;28;20397;-76
2021/01/05 00:19:45;;;;;;;6.93;5.35;;;6.70;96.70;;;;;;5076593;28;20647;-76
2021/01/05 00:22:14;;;;;;;5.75;4.65;;;6.80;96.70;;;;;;5066293;28;20409;-77
2021/01/05 00:24:41;;;;;;;6.47;4.32;;;6.80;96.70;;;;;;5064083;28;20039;-76
2021/01/05 00:27:09;;;;;;;8.15;4.88;;;6.80;96.70;;;;;;5063478;28;20127;-76
2021/01/05 00:29:37;;;;;;;7.35;5.03;;;6.80;96.70;;;;;;5060680;28;20093;-76
2021/01/05 00:32:07;;;;;;;6.65;4.43;;;6.90;96.70;;;;;;5066427;28;20040;-76
2021/01/05 00:34:34;;;;;;;5.90;4.88;;;6.90;96.70;;;;;;5076142;28;20083;-76
2021/01/05 00:37:02;;;;;;;5.75;4.65;;;6.90;96.70;;;;;;5053812;28;20102;-76
2021/01/05 00:39:30;;;;;;;6.85;4.65;;;6.80;96.70;;;;;;5068227;28;20049;-76
2021/01/05 00:41:57;;;;;;;5.88;4.47;;;6.70;96.70;;;;;;5056556;28;20067;-76
2021/01/05 00:44:25;;;;;;;5.32;4.53;;;6.70;96.70;;;;;;5060333;28;20575;-76
2021/01/05 00:46:55;;;;;;;5.43;4.20;;;6.60;96.70;;;;;;5085640;28;20062;-76
2021/01/05 00:49:23;;;;;;;4.82;4.03;;;6.60;96.70;;;;;;5077194;28;20040;-76
2021/01/05 00:51:50;;;;;;;4.45;3.80;;;6.70;96.70;;;;;;5061102;28;20039;-76
2021/01/05 00:54:18;;;;;;;4.45;3.97;;;6.70;96.70;;;;;;5059702;28;20040;-76
2021/01/05 00:56:59;;;;;;;6.00;4.65;;;6.70;96.70;;;;;;5061799;28;20036;-76
2021/01/05 00:59:27;;;;;;;5.55;4.07;;;6.70;96.70;;;;;;5062578;28;20047;-77
2021/01/05 01:01:54;;;;;;;5.93;4.30;;;6.70;96.70;;;;;;5064296;28;20107;-76
2021/01/05 01:04:22;;;;;;;4.05;3.65;;;6.70;96.70;;;;;;5057761;28;20044;-76
2021/01/05 01:06:49;;;;;;;5.32;4.05;;;6.70;96.70;;;;;;5052727;28;20064;-76
2021/01/05 01:09:17;;;;;;;5.13;3.78;;;6.60;96.70;;;;;;5060475;28;20040;-76
2021/01/05 01:12:01;;;;;;;4.30;3.40;;;6.70;96.70;;;;;;5066123;28;20596;-76
2021/01/05 01:14:31;;;;;;;;;;;6.70;96.70;;;;;;5057368;28;20874;-76
2021/01/05 01:16:58;;;;;;;5.93;3.72;;;6.60;96.70;;;;;;5043781;28;19986;-76
2021/01/05 01:19:26;;;;;;;6.57;4.15;;;6.60;96.70;;;;;;5056029;28;20060;-76
2021/01/05 01:21:55;;;;;;;5.18;3.63;;;6.60;96.70;;;;;;5069366;28;20110;-76
2021/01/05 01:24:24;;;;;;;5.82;4.28;;;6.50;96.70;;;;;;5062197;28;20390;-76
2021/01/05 01:26:53;;;;;;;5.15;4.00;;;6.60;96.70;;;;;;5062635;28;20051;-76
2021/01/05 01:29:23;;;;;;;4.90;4.18;;;6.60;96.70;;;;;;5061938;28;20419;-76
2021/01/05 01:31:52;;;;;;;5.93;4.15;;;6.60;96.70;;;;;;5064863;28;20040;-76
2021/01/05 01:34:21;;;;;;;6.97;4.40;;;6.50;96.70;;;;;;5061960;28;20156;-77
2021/01/05 01:36:56;;;;;;;6.20;4.85;;;6.60;96.70;;;;;;5061932;28;20040;-76
2021/01/05 01:39:24;;;;;;;4.40;4.00;;;6.60;96.70;;;;;;5059704;28;20033;-75
2021/01/05 01:41:53;;;;;;;4.97;4.20;;;6.60;96.70;;;;;;5058249;28;20040;-76
2021/01/05 01:44:23;;;;;;;5.72;4.00;;;6.70;96.70;;;;;;5062098;28;20078;-76
2021/01/05 01:46:53;;;;;;;4.35;3.80;;;6.70;96.70;;;;;;5064823;28;20041;-76
2021/01/05 01:49:22;;;;;;;4.63;3.30;;;6.70;96.70;;;;;;5061482;28;20060;-77
2021/01/05 01:51:51;;;;;;;3.53;3.22;;;6.70;96.70;;;;;;5049526;28;20045;-76
2021/01/05 01:54:44;;;;;;;4.55;3.03;;;6.60;96.70;;;;;;5071221;28;20048;-76
2021/01/05 01:57:32;;;;;;;4.30;2.70;;;6.60;96.70;;;;;;5060462;28;20050;-76
2021/01/05 02:00:14;;;;;;;4.80;3.05;;;6.60;96.70;;;;;;5059201;28;20048;-76
2021/01/05 02:03:18;;;;;;;3.03;2.47;;;6.60;96.70;;;;;;5061197;28;20056;-76
2021/01/05 02:06:07;;;;;;;3.20;2.25;;;6.60;96.70;;;;;;5058799;28;20099;-75
2021/01/05 02:08:43;;;;;;;5.38;3.17;;;6.60;96.70;;;;;;5062234;28;20055;-76
2021/01/05 02:11:18;;;;;;;;;;;6.60;96.70;;;;;;5063276;28;20797;-76
2021/01/05 02:14:08;;;;;;;3.53;2.08;;;6.60;96.70;;;;;;5064742;28;19924;-75
2021/01/05 02:16:48;;;;;;;2.60;2.00;;;6.60;96.70;;;;;;5049890;28;20041;-76
2021/01/05 02:19:30;;;;;;;3.00;2.00;;;6.70;96.70;;;;;;5043375;28;20055;-75
2021/01/05 02:22:13;;;;;;;2.95;1.90;;;6.60;96.70;;;;;;5054700;28;20052;-76
2021/01/05 02:24:52;;;;;;;2.20;1.80;;;6.60;96.70;;;;;;5058553;28;20036;-76
2021/01/05 02:27:21;;;;;;;2.70;1.80;;;6.70;96.70;;;;;;5069491;28;20044;-76
2021/01/05 02:29:53;;;;;;;2.50;1.80;;;6.70;96.70;;;;;;5058261;28;20040;-77
2021/01/05 02:32:41;;;;;;;2.75;1.77;;;6.60;96.70;;;;;;5058869;28;20045;-76
2021/01/05 02:35:59;;;;;;;1.58;1.40;;;6.70;96.70;;;;;;5072291;28;20482;-77
2021/01/05 02:39:00;;;;;;;1.75;1.38;;;6.60;96.70;;;;;;5061529;28;20047;-76
2021/01/05 02:41:42;;;;;;;1.98;1.35;;;6.70;96.70;;;;;;5065270;28;20473;-76
2021/01/05 02:44:31;;;;;;;1.45;1.20;;;6.70;96.70;;;;;;5058491;28;20685;-76
2021/01/05 02:47:31;;;;;;;2.47;1.35;;;6.70;96.70;;;;;;5061493;28;20135;-77
2021/01/05 02:50:17;;;;;;;2.08;1.52;;;6.60;96.70;;;;;;5059893;28;20154;-76
2021/01/05 02:53:15;;;;;;;2.40;1.90;;;6.60;96.70;;;;;;5061489;28;20057;-76
2021/01/05 02:56:22;;;;;;;3.03;1.92;;;6.60;96.70;;;;;;5066713;28;20036;-76
2021/01/05 02:59:29;;;;;;;3.28;1.80;;;6.60;96.70;;;;;;5054010;28;20542;-77
2021/01/05 03:02:29;;;;;;;2.58;1.65;;;6.60;96.70;;;;;;5068690;28;20028;-77
2021/01/05 03:05:08;;;;;;;2.85;1.70;;;6.60;96.70;;;;;;5057326;28;20074;-76
2021/01/05 03:07:46;;;;;;;3.22;1.63;;;6.60;96.70;;;;;;5071780;28;20127;-76
2021/01/05 03:10:36;;;;;;;2.95;1.40;;;6.60;96.70;;;;;;5068245;28;20040;-76
2021/01/05 03:13:40;;;;;;;2.15;1.35;;;6.70;96.70;;;;;;5064351;28;20048;-76
2021/01/05 03:16:22;;;;;;;1.67;1.10;;;6.80;96.70;;;;;;5068473;28;20074;-76
2021/01/05 03:19:09;;;;;;;1.67;1.20;;;6.70;96.70;;;;;;5055755;28;20040;-77
2021/01/05 03:21:51;;;;;;;1.33;0.95;;;6.70;96.70;;;;;;5053135;28;20603;-76
2021/01/05 03:24:30;;;;;;;1.73;0.90;;;6.70;96.70;;;;;;5057062;28;20028;-76
2021/01/05 03:27:08;;;;;;;1.67;1.00;;;6.60;96.70;;;;;;5064564;28;20049;-76
2021/01/05 03:29:45;;;;;;;1.50;0.90;;;6.70;96.70;;;;;;5041161;28;20055;-76
2021/01/05 03:32:22;;;;;;;1.30;1.00;;;6.80;96.70;;;;;;5061493;28;20123;-76
2021/01/05 03:35:00;;;;;;;1.38;0.80;;;6.80;96.70;;;;;;5069735;28;20052;-76
2021/01/05 03:37:37;;;;;;;1.17;0.75;;;6.70;96.70;;;;;;5070876;28;20859;-76
2021/01/05 03:40:15;;;;;;;1.52;1.00;;;6.70;96.70;;;;;;5045185;28;20553;-76
2021/01/05 03:42:52;;;;;;;1.67;0.95;;;6.80;96.70;;;;;;5062231;28;20674;-76
2021/01/05 03:45:31;;;;;;;1.30;0.82;;;6.80;96.70;;;;;;5047859;28;20676;-76
2021/01/05 03:48:08;;;;;;;1.58;0.93;;;6.90;96.70;;;;;;5062407;28;20059;-76
2021/01/05 03:50:46;;;;;;;1.05;0.70;;;6.90;96.70;;;;;;5064688;28;20035;-76
2021/01/05 03:53:23;;;;;;;2.60;1.00;;;6.90;96.70;;;;;;5059052;28;20036;-76
2021/01/05 03:56:10;;;;;;;1.20;0.90;;;6.90;96.70;;;;;;5061859;28;20497;-76
2021/01/05 03:58:47;;;;;;;1.02;0.77;;;6.90;96.70;;;;;;5067687;28;20120;-77
2021/01/05 04:01:24;;;;;;;0.95;0.80;;;7.00;96.70;;;;;;5054319;28;20067;-76
2021/01/05 04:03:51;;;;;;;0.68;0.68;;;7.00;96.70;;;;;;5057101;28;20167;-75
2021/01/05 04:06:19;;;;;;;0.73;0.68;;;7.00;96.70;;;;;;5059899;28;20059;-72
2021/01/05 04:08:46;;;;;;;1.10;0.90;;;7.00;96.70;;;;;;5064587;28;20048;-72
2021/01/05 04:11:16;;;;;;;1.65;0.90;;;6.90;96.70;;;;;;5059397;28;20498;-72
2021/01/05 04:13:43;;;;;;;1.83;0.80;;;6.90;96.70;;;;;;5062060;28;20048;-72
2021/01/05 04:16:11;;;;;;;1.35;0.90;;;6.90;96.70;;;;;;5064345;28;20048;-72
2021/01/05 04:18:38;;;;;;;1.17;0.85;;;7.00;96.70;;;;;;5053431;28;20090;-72
2021/01/05 04:21:05;;;;;;;1.73;0.98;;;7.00;96.70;;;;;;5059775;28;20380;-72
2021/01/05 04:23:33;;;;;;;1.77;0.90;;;7.00;96.70;;;;;;5060600;28;20394;-71
2021/01/05 04:26:00;;;;;;;1.67;1.15;;;7.00;96.70;;;;;;5060293;28;20218;-72
2021/01/05 04:28:28;;;;;;;1.17;0.82;;;7.10;96.70;;;;;;5061936;28;20053;-71
2021/01/05 04:30:55;;;;;;;1.10;0.70;;;7.10;96.70;;;;;;5058268;28;20037;-71
2021/01/05 04:33:22;;;;;;;1.40;0.93;;;7.10;96.70;;;;;;5053992;28;20494;-71
2021/01/05 04:35:49;;;;;;;1.05;0.70;;;7.10;96.70;;;;;;5057526;28;20041;-71
2021/01/05 04:38:16;;;;;;;3.60;0.95;;;7.00;96.70;;;;;;5057007;28;20040;-71
2021/01/05 04:40:48;;;;;;;1.17;0.70;;;7.00;96.70;;;;;;5059431;28;20033;-72
2021/01/05 04:43:22;;;;;;;3.97;0.93;;;7.10;96.70;;;;;;5058754;28;20619;-72
2021/01/05 04:45:59;;;;;;;2.22;0.98;;;7.00;96.70;;;;;;5055503;28;20110;-71
2021/01/05 04:48:38;;;;;;;1.60;0.93;;;7.00;96.70;;;;;;5061506;28;20695;-71
2021/01/05 04:51:16;;;;;;;2.15;0.80;;;6.90;96.70;;;;;;5056042;28;20456;-72
2021/01/05 04:53:50;;;;;;;1.27;0.60;;;6.90;96.70;;;;;;5057169;28;20577;-71
2021/01/05 04:56:23;;;;;;;0.80;0.50;;;6.90;96.70;;;;;;5055276;28;20119;-72
2021/01/05 04:58:55;;;;;;;2.58;1.45;;;7.00;96.70;;;;;;5059253;28;20048;-71
2021/01/05 05:01:25;;;;;;;1.05;0.63;;;7.00;96.70;;;;;;5057094;28;20040;-73
2021/01/05 05:04:03;;;;;;;1.23;0.70;;;7.00;96.70;;;;;;5058791;28;20490;-71
2021/01/05 05:06:36;;;;;;;0.90;0.60;;;7.00;96.70;;;;;;5061372;28;20047;-72
2021/01/05 05:09:12;;;;;;;0.85;0.65;;;7.00;96.70;;;;;;5056725;28;20142;-71
2021/01/05 05:11:53;;;;;;;1.45;0.70;;;7.00;96.70;;;;;;5059926;28;20719;-72
2021/01/05 05:14:36;;;;;;;1.80;0.85;;;7.10;96.70;;;;;;5058011;28;20083;-71
2021/01/05 05:17:26;;;;;;;2.28;0.88;;;7.10;96.70;;;;;;5060870;28;20053;-71
2021/01/05 05:20:06;;;;;;;1.30;0.80;;;7.10;96.70;;;;;;5057904;28;20043;-72
2021/01/05 05:22:46;;;;;;;3.65;0.90;;;7.10;96.70;;;;;;5055835;28;20051;-71
2021/01/05 05:25:20;;;;;;;0.82;0.60;;;7.10;96.70;;;;;;5056845;28;20064;-72
2021/01/05 05:27:54;;;;;;;1.17;0.88;;;7.00;96.70;;;;;;5052505;28;20055;-71
2021/01/05 05:30:32;;;;;;;0.88;0.75;;;7.10;96.70;;;;;;5062152;28;20416;-71
2021/01/05 05:33:01;;;;;;;1.92;1.02;;;7.10;96.70;;;;;;5059696;28;20054;-72
2021/01/05 05:35:52;;;;;;;0.98;0.70;;;7.10;96.70;;;;;;5052145;28;20056;-71
2021/01/05 05:38:33;;;;;;;1.40;0.75;;;7.10;96.70;;;;;;5053138;28;20119;-72
2021/01/05 05:41:16;;;;;;;2.05;0.80;;;7.10;96.70;;;;;;5057226;28;20097;-72
2021/01/05 05:44:04;;;;;;;2.20;0.90;;;7.10;96.70;;;;;;5061674;28;20040;-71
2021/01/05 05:46:38;;;;;;;1.83;0.93;;;7.10;96.70;;;;;;5059048;28;20043;-71
2021/01/05 05:49:15;;;;;;;2.28;1.00;;;7.10;96.70;;;;;;5053435;28;20044;-72
2021/01/05 05:51:49;;;;;;;2.85;1.42;;;7.10;96.70;;;;;;5057385;28;20394;-72
2021/01/05 05:54:18;;;;;;;1.45;0.90;;;7.10;96.70;;;;;;5054293;28;20040;-73
2021/01/05 05:57:04;;;;;;;2.33;1.27;;;7.10;96.70;;;;;;5064307;28;20048;-72
2021/01/05 05:59:36;;;;;;;1.80;1.30;;;7.10;96.70;;;;;;5055746;28;20355;-71
2021/01/05 06:02:04;;;;;;;1.42;1.00;;;7.10;96.70;;;;;;5056225;28;20371;-72
2021/01/05 06:04:37;;;;;;;1.85;1.10;;;7.10;96.70;;;;;;5056853;28;20039;-72
2021/01/05 06:07:04;;;;;;;2.60;1.10;;;7.10;96.70;;;;;;5062768;28;20032;-71
2021/01/05 06:09:31;;;;;;;2.70;1.02;;;7.10;96.70;;;;;;5051839;28;20163;-71
2021/01/05 06:11:59;;;;;;;1.83;1.20;;;7.20;96.70;;;;;;5060851;28;20037;-72
2021/01/05 06:14:26;;;;;;;1.75;1.30;;;7.10;96.70;;;;;;5053639;28;20471;-72
2021/01/05 06:16:54;;;;;;;3.15;1.35;;;7.10;96.70;;;;;;5052726;28;20055;-72
2021/01/05 06:19:21;;;;;;;2.70;1.35;;;7.10;96.70;;;;;;5059649;28;20502;-72
2021/01/05 06:21:48;;;;;;;1.65;0.93;;;7.10;96.70;;;;;;5061520;28;20048;-72
2021/01/05 06:24:16;;;;;;;2.42;0.90;;;7.10;96.70;;;;;;5062216;28;20374;-72
2021/01/05 06:26:43;;;;;;;1.25;0.77;;;7.00;96.70;;;;;;5057163;28;20053;-71
2021/01/05 06:29:10;;;;;;;1.98;0.70;;;7.00;96.70;;;;;;5062146;28;20040;-71
2021/01/05 06:31:38;;;;;;;2.10;0.75;;;7.00;96.70;;;;;;5065260;28;20051;-72
2021/01/05 06:34:06;;;;;;;1.27;0.80;;;7.00;96.70;;;;;;5059472;28;20518;-72
2021/01/05 06:36:33;;;;;;;1.30;0.45;;;7.00;96.70;;;;;;5061809;28;20038;-71
2021/01/05 06:39:00;;;;;;;1.23;0.70;;;6.90;96.70;;;;;;5059806;28;20090;-71
2021/01/05 06:41:27;;;;;;;1.10;0.70;;;7.00;96.70;;;;;;5053051;28;20033;-72
2021/01/05 06:43:54;;;;;;;0.63;0.47;;;7.00;96.70;;;;;;5062240;28;20059;-71
2021/01/05 06:46:22;;;;;;;2.10;0.77;;;6.90;96.70;;;;;;5062538;28;20126;-71
2021/01/05 06:48:49;;;;;;;0.75;0.50;;;6.90;96.70;;;;;;5060480;28;20048;-72
2021/01/05 06:51:17;;;;;;;1.88;0.65;;;6.90;96.70;;;;;;5060310;28;20051;-72
2021/01/05 06:53:45;;;;;;;0.90;0.57;;;6.90;96.70;;;;;;5061689;28;20649;-72
2021/01/05 06:56:13;;;;;;;0.63;0.40;;;6.90;96.70;;;;;;5057243;28;20127;-72
2021/01/05 06:58:41;;;;;;;1.40;0.70;;;6.90;96.70;;;;;;5062491;28;20075;-72
2021/01/05 07:01:08;;;;;;;0.90;0.47;;;6.90;96.70;;;;;;5063507;28;20044;-73
2021/01/05 07:03:35;;;;;;;1.10;0.50;;;6.90;96.70;;;;;;5061235;28;20534;-73
2021/01/05 07:06:02;;;;;;;1.20;0.50;;;6.90;96.70;;;;;;5056016;28;20052;-71
2021/01/05 07:08:30;;;;;;;1.65;0.35;;;6.90;96.70;;;;;;5071446;28;20402;-72
2021/01/05 07:10:57;;;;;;;0.93;0.40;;;6.90;96.70;;;;;;5058940;28;20037;-72
2021/01/05 07:13:24;;;;;;;0.50;0.38;;;6.90;96.70;;;;;;5059958;28;20445;-71
2021/01/05 07:15:53;;;;;;;0.20;0.10;;;6.90;96.70;;;;;;5053903;28;20037;-72
2021/01/05 07:18:20;;;;;;;0.50;0.30;;;6.90;96.70;;;;;;5058578;28;20035;-73
2021/01/05 07:20:50;;;;;;;0.57;0.38;;;6.90;96.70;;;;;;5059927;28;20127;-72
2021/01/05 07:23:17;;;;;;;1.20;0.40;;;6.80;96.70;;;;;;5067467;28;20042;-71
2021/01/05 07:25:45;;;;;;;0.50;0.30;;;6.80;96.70;;;;;;5059009;28;20341;-72
2021/01/05 07:28:13;;;;;;;0.50;0.22;;;6.90;96.70;;;;;;5067473;28;20520;-72
2021/01/05 07:30:40;;;;;;;0.40;0.20;;;6.90;96.70;;;;;;5057678;28;20438;-72
2021/01/05 07:33:07;;;;;;;0.40;0.20;;;6.90;96.70;;;;;;5060063;28;20332;-72
2021/01/05 07:35:34;;;;;;;0.35;0.20;;;6.90;96.70;;;;;;5062171;28;20053;-71
2021/01/05 07:38:02;;;;;;;0.30;0.20;;;6.90;96.70;;;;;;5061817;28;20128;-71
2021/01/05 07:40:30;;;;;;;1.10;0.20;;;6.90;96.70;;;;;;5058515;28;20047;-72
2021/01/05 07:42:58;;;;;;;0.90;0.30;;;7.00;96.70;;;;;;5058103;28;20064;-72
2021/01/05 07:45:25;;;;;;;0.43;0.30;;;6.90;96.70;;;;;;5058357;28;20460;-71
2021/01/05 07:47:52;;;;;;;1.75;0.20;;;7.00;96.70;;;;;;5066587;28;20067;-71
2021/01/05 07:50:21;;;;;;;1.38;0.30;;;7.00;96.70;;;;;;5069811;28;20469;-73
2021/01/05 07:52:49;;;;;;;0.43;0.30;;;7.00;96.70;;;;;;5078473;28;20045;-72
2021/01/05 07:55:18;;;;;;;1.17;0.30;;;7.00;96.70;;;;;;5057086;28;20037;-71
2021/01/05 07:57:45;;;;;;;0.55;0.28;;;7.00;96.70;;;;;;5056483;28;20049;-72
2021/01/05 08:00:16;;;;;;;0.57;0.28;;;7.00;96.70;;;;;;5059556;28;20039;-72
2021/01/05 08:02:44;;;;;;;0.50;0.30;;;7.00;96.70;;;;;;5062566;28;20128;-71
2021/01/05 08:05:12;;;;;;;0.80;0.20;;;7.00;96.70;;;;;;5060327;28;20418;-72
2021/01/05 08:07:40;;;;;;;0.88;0.25;;;7.10;96.70;;;;;;5056548;28;20045;-71
2021/01/05 08:10:09;;;;;;;0.82;0.52;;;7.10;96.70;;;;;;5056086;28;20039;-72
2021/01/05 08:12:36;;;;;;;0.30;0.20;;;7.10;96.70;;;;;;5055259;28;20041;-71
2021/01/05 08:15:04;;;;;;;1.17;0.30;;;7.10;96.70;;;;;;5039441;28;20045;-72
2021/01/05 08:17:32;;;;;;;0.68;0.30;;;7.10;96.70;;;;;;5050889;28;20505;-72
2021/01/05 08:19:59;;;;;;;0.90;0.40;;;7.10;96.70;;;;;;5061950;28;20047;-72
2021/01/05 08:22:26;;;;;;;0.47;0.30;;;7.00;96.70;;;;;;5055701;28;20045;-71
2021/01/05 08:24:55;;;;;;;1.35;0.40;;;7.00;96.70;;;;;;5056741;28;20150;-71
2021/01/05 08:27:22;;;;;;;0.60;0.40;;;7.10;96.70;;;;;;5058831;28;20518;-71
2021/01/05 08:29:49;;;;;;;2.08;1.25;;;7.10;96.70;;;;;;5058360;28;20043;-71
2021/01/05 08:32:16;;;;;;;2.38;1.38;;;7.10;96.70;;;;;;5058703;28;20037;-71
2021/01/05 08:34:45;;;;;;;4.68;1.90;;;7.20;96.70;;;;;;5059534;28;20052;-72
2021/01/05 08:37:13;;;;;;;3.53;1.63;;;7.20;96.70;;;;;;5050073;28;20186;-72
2021/01/05 08:39:41;;;;;;;1.80;1.10;;;7.20;96.70;;;;;;5054329;28;20051;-71
2021/01/05 08:42:08;;;;;;;2.30;1.65;;;7.20;96.70;;;;;;5052810;28;20656;-72
2021/01/05 08:44:35;;;;;;;2.42;1.45;;;7.20;96.70;;;;;;5057822;28;20502;-72
2021/01/05 08:47:04;;;;;;;2.95;1.70;;;7.20;96.70;;;;;;5060030;28;20040;-72
2021/01/05 08:49:32;;;;;;;3.90;2.05;;;7.10;96.70;;;;;;5056120;28;20041;-71
2021/01/05 08:52:01;;;;;;;1.30;1.00;;;7.10;96.70;;;;;;5057478;28;20058;-72
2021/01/05 08:54:28;;;;;;;2.15;1.00;;;7.10;96.70;;;;;;5049965;28;20583;-72
2021/01/05 08:56:58;;;;;;;8.18;5.93;;;7.10;96.70;;;;;;5050007;28;20041;-71
2021/01/05 08:59:25;;;;;;;2.90;1.38;;;7.10;96.70;;;;;;5046995;28;20056;-72
2021/01/05 09:01:53;;;;;;;2.30;1.30;;;7.00;96.70;;;;;;5053991;28;20403;-73
2021/01/05 09:04:20;;;;;;;4.65;2.53;;;7.00;96.70;;;;;;5069255;28;20042;-72
2021/01/05 09:06:49;;;;;;;1.75;0.98;;;7.00;96.70;;;;;;5057145;28;20051;-74
2021/01/05 09:09:17;;;;;;;2.83;1.77;;;7.00;96.70;;;;;;5057290;28;20433;-74
2021/01/05 09:11:51;;;;;;;1.75;1.20;;;6.90;96.70;;;;;;5056543;28;20103;-73
2021/01/05 09:14:20;;;;;;;1.50;1.02;;;6.90;96.70;;;;;;5056248;28;20697;-73
2021/01/05 09:16:48;;;;;;;1.70;1.10;;;6.90;96.70;;;;;;5058356;28;20037;-73
2021/01/05 09:19:15;;;;;;;2.13;1.17;;;6.70;96.70;;;;;;5056527;28;20615;-73
2021/01/05 09:21:47;;;;;;;1.52;0.98;;;6.70;96.70;;;;;;5058616;28;20352;-74
2021/01/05 09:24:15;;;;;;;2.83;0.82;;;6.70;96.70;;;;;;5057168;28;20053;-73
2021/01/05 09:26:44;;;;;;;2.63;0.98;;;6.80;96.70;;;;;;5059964;28;20040;-73
2021/01/05 09:29:12;;;;;;;1.40;0.80;;;6.80;96.70;;;;;;5063175;28;20045;-73
2021/01/05 09:31:41;;;;;;;1.67;0.93;;;6.80;96.70;;;;;;5057765;28;20032;-73
2021/01/05 09:34:09;;;;;;;1.75;1.00;;;6.80;96.70;;;;;;5063138;28;20155;-74
2021/01/05 09:36:37;;;;;;;0.95;0.50;;;6.80;96.70;;;;;;5060020;28;20051;-73
2021/01/05 09:39:07;;;;;;;1.58;0.70;;;6.90;96.70;;;;;;5058105;28;20135;-74
2021/01/05 09:41:38;;;;;;;1.92;0.82;;;6.90;96.70;;;;;;5053126;28;20672;-73
2021/01/05 09:44:08;;;;;;;1.20;0.80;;;6.80;96.70;;;;;;5055199;28;20048;-73
2021/01/05 09:46:39;;;;;;;1.10;0.80;;;6.80;96.70;;;;;;5061842;28;20221;-74
2021/01/05 09:49:06;;;;;;;2.42;0.50;;;6.80;96.70;;;;;;5049978;28;20049;-72
2021/01/05 09:51:34;;;;;;;1.17;0.60;;;6.80;96.70;;;;;;5068681;28;20072;-71
2021/01/05 09:54:13;;;;;;;2.25;0.90;;;6.80;96.70;;;;;;5043113;28;20048;-71
2021/01/05 09:56:41;;;;;;;1.38;0.77;;;6.80;96.70;;;;;;5057465;28;20109;-72
2021/01/05 09:59:09;;;;;;;2.85;0.85;;;6.80;96.70;;;;;;5070826;28;20341;-72
2021/01/05 10:01:36;;;;;;;1.52;0.70;;;6.80;96.70;;;;;;5067635;28;20036;-71
2021/01/05 10:04:04;;;;;;;2.08;0.63;;;6.90;96.70;;;;;;5056091;28;20044;-72
2021/01/05 10:06:34;;;;;;;1.05;0.60;;;6.90;96.70;;;;;;5064334;28;20094;-72
2021/01/05 10:09:11;;;;;;;1.75;0.70;;;6.90;96.70;;;;;;5055466;28;20121;-72
2021/01/05 10:11:41;;;;;;;1.67;0.75;;;7.00;96.70;;;;;;5059668;28;20048;-72
2021/01/05 10:14:11;;;;;;;1.00;0.63;;;7.00;96.70;;;;;;5049540;28;20044;-71
2021/01/05 10:16:38;;;;;;;1.85;0.73;;;7.00;96.70;;;;;;5054181;28;20040;-71
2021/01/05 10:19:06;;;;;;;1.13;0.68;;;7.00;96.70;;;;;;5053286;28;20044;-72
2021/01/05 10:21:36;;;;;;;1.60;0.95;;;7.00;96.70;;;;;;5072504;28;20040;-70
2021/01/05 10:24:06;;;;;;;1.35;0.82;;;7.00;96.70;;;;;;5055631;28;20040;-71
2021/01/05 10:26:33;;;;;;;1.75;0.93;;;7.00;96.70;;;;;;5045905;28;20383;-71
2021/01/05 10:29:02;;;;;;;2.10;0.88;;;7.00;96.70;;;;;;5051046;28;20048;-72
2021/01/05 10:31:38;;;;;;;6.93;3.55;;;6.90;96.70;;;;;;5054928;28;20060;-70
2021/01/05 10:34:06;;;;;;;9.10;5.80;;;7.00;96.70;;;;;;5034968;28;20072;-72
2021/01/05 10:36:35;;;;;;;5.97;3.25;;;7.00;96.70;;;;;;5053361;28;20136;-72
2021/01/05 10:39:07;;;;;;;3.72;2.30;;;7.10;96.70;;;;;;5057431;28;20032;-71
2021/01/05 10:41:35;;;;;;;2.63;1.33;;;7.10;96.70;;;;;;5062239;28;20152;-72
2021/01/05 10:44:04;;;;;;;2.58;1.27;;;7.10;96.70;;;;;;5055706;28;20056;-72
2021/01/05 10:46:31;;;;;;;1.40;0.90;;;7.10;96.70;;;;;;5056255;28;20044;-72
2021/01/05 10:48:59;;;;;;;1.48;0.82;;;7.10;96.70;;;;;;5060378;28;20048;-71
2021/01/05 10:51:27;;;;;;;1.10;0.70;;;7.00;96.70;;;;;;5075749;28;20120;-72
2021/01/05 10:53:54;;;;;;;1.48;0.70;;;7.10;96.70;;;;;;5067585;28;20691;-71
2021/01/05 10:56:23;;;;;;;1.05;0.50;;;7.00;96.70;;;;;;5066671;28;20048;-71
2021/01/05 10:58:51;;;;;;;1.10;0.70;;;7.00;96.70;;;;;;5067342;28;20046;-72
2021/01/05 11:01:19;;;;;;;1.08;0.50;;;7.10;96.70;;;;;;5058690;28;20064;-72
2021/01/05 11:03:46;;;;;;;1.27;0.73;;;7.10;96.70;;;;;;5048519;28;20120;-72
2021/01/05 11:06:15;;;;;;;1.75;0.88;;;7.10;96.70;;;;;;5070486;28;20059;-71
2021/01/05 11:08:42;;;;;;;1.35;0.60;;;7.00;96.70;;;;;;5059744;28;20055;-71
2021/01/05 11:11:15;;;;;;;1.13;1.02;;;7.00;96.70;;;;;;5056154;28;20045;-71
2021/01/05 11:13:43;;;;;;;1.60;0.93;;;7.00;96.70;;;;;;5051820;28;20048;-72
2021/01/05 11:16:10;;;;;;;1.40;1.30;;;7.00;96.70;;;;;;5056569;28;20037;-72
2021/01/05 11:18:39;;;;;;;1.58;1.10;;;6.90;96.70;;;;;;5049656;28;20075;-72
2021/01/05 11:21:10;;;;;;;1.45;1.00;;;6.90;96.70;;;;;;5056802;28;20036;-72
2021/01/05 11:23:39;;;;;;;2.22;1.52;;;6.90;96.70;;;;;;5057905;28;20445;-71
2021/01/05 11:26:07;;;;;;;1.58;0.90;;;6.90;96.70;;;;;;5058671;28;20068;-72
2021/01/05 11:28:51;;;;;;;1.45;0.80;;;6.90;96.70;;;;;;5064167;28;20044;-71
2021/01/05 11:31:18;;;;;;;1.85;0.90;;;6.90;96.70;;;;;;5059985;28;20166;-72
2021/01/05 11:33:46;;;;;;;1.65;1.05;;;6.80;96.70;;;;;;5077634;28;20101;-72
2021/01/05 11:36:22;;;;;;;1.00;0.90;;;6.80;96.70;;;;;;5057370;28;20520;-71
2021/01/05 11:38:50;;;;;;;1.73;1.27;;;6.90;96.70;;;;;;5057577;28;20120;-72
2021/01/05 11:41:21;;;;;;;2.53;0.85;;;7.00;96.70;;;;;;5058612;28;20429;-72
2021/01/05 11:43:49;;;;;;;2.45;1.27;;;7.00;96.70;;;;;;5064412;28;20135;-71
2021/01/05 11:46:16;;;;;;;1.13;1.02;;;7.00;96.70;;;;;;5062231;28;20404;-71
2021/01/05 11:48:44;;;;;;;2.30;1.80;;;7.00;96.70;;;;;;5056716;28;20562;-71
2021/01/05 11:51:17;;;;;;;1.90;1.35;;;7.10;96.70;;;;;;5052459;28;20040;-71
2021/01/05 11:53:44;;;;;;;1.65;1.00;;;7.10;96.70;;;;;;5051795;28;20684;-73
2021/01/05 11:56:19;;;;;;;1.25;1.02;;;7.10;96.70;;;;;;5076542;28;20044;-72
2021/01/05 11:58:46;;;;;;;1.45;0.85;;;7.10;96.70;;;;;;5055837;28;20052;-71
2021/01/05 12:01:14;;;;;;;1.42;0.73;;;7.10;96.70;;;;;;5061275;28;20040;-72
2021/01/05 12:03:41;;;;;;;1.83;0.80;;;7.20;96.70;;;;;;5052936;28;20086;-72
2021/01/05 12:06:12;;;;;;;2.83;1.00;;;7.20;96.70;;;;;;5070515;28;20095;-71
2021/01/05 12:08:40;;;;;;;1.10;0.90;;;7.30;96.70;;;;;;5055746;28;20052;-72
2021/01/05 12:11:07;;;;;;;1.45;0.80;;;7.30;96.70;;;;;;5057103;28;20318;-71
2021/01/05 12:13:35;;;;;;;2.05;0.95;;;7.30;96.70;;;;;;5056779;28;20051;-71
2021/01/05 12:16:05;;;;;;;1.35;0.88;;;7.30;96.70;;;;;;5056212;28;20048;-71
2021/01/05 12:18:32;;;;;;;4.80;2.85;;;7.20;96.70;;;;;;5059475;28;20048;-71
2021/01/05 12:20:59;;;;;;;4.90;2.83;;;7.20;96.70;;;;;;5059171;28;20143;-71
2021/01/05 12:23:26;;;;;;;4.53;3.42;;;7.20;96.70;;;;;;5053224;28;20094;-70
2021/01/05 12:25:54;;;;;;;5.18;3.58;;;7.20;96.70;;;;;;5051770;28;20036;-71
2021/01/05 12:28:22;;;;;;;4.05;2.58;;;7.30;96.70;;;;;;5059651;28;20486;-70
2021/01/05 12:30:50;;;;;;;3.25;2.72;;;7.30;96.70;;;;;;5065933;28;20142;-72
2021/01/05 12:33:17;;;;;;;2.65;1.90;;;7.40;96.70;;;;;;5055032;28;20041;-72
2021/01/05 12:35:45;;;;;;;2.80;2.00;;;7.50;96.70;;;;;;5058584;28;20040;-72
2021/01/05 12:38:12;;;;;;;6.78;4.22;;;7.70;96.70;;;;;;5065664;28;20075;-71
2021/01/05 12:40:39;;;;;;;5.32;3.90;;;7.80;96.70;;;;;;5059775;28;20040;-72
2021/01/05 12:43:07;;;;;;;5.13;4.50;;;7.90;96.70;;;;;;5053587;28;20116;-71
2021/01/05 12:45:34;;;;;;;5.13;4.63;;;8.00;96.70;;;;;;5056741;28;20685;-72
2021/01/05 12:48:03;;;;;;;3.53;2.70;;;8.00;96.70;;;;;;5042065;28;20094;-72
2021/01/05 12:50:30;;;;;;;3.55;2.70;;;8.10;96.70;;;;;;5057687;28;20179;-71
2021/01/05 12:52:57;;;;;;;2.03;1.50;;;8.10;96.70;;;;;;5039202;28;20040;-71
2021/01/05 12:55:25;;;;;;;2.53;1.75;;;8.10;96.70;;;;;;5054677;28;20047;-75
2021/01/05 12:57:52;;;;;;;1.55;1.10;;;8.10;96.70;;;;;;5055435;28;20495;-75
2021/01/05 13:00:21;;;;;;;2.40;1.38;;;8.00;96.70;;;;;;5054674;28;20037;-75
2021/01/05 13:02:48;;;;;;;3.55;1.58;;;8.10;96.70;;;;;;5054192;28;20041;-75
2021/01/05 13:05:17;;;;;;;1.20;0.93;;;8.10;96.70;;;;;;5049347;28;20045;-76
2021/01/05 13:07:44;;;;;;;2.38;1.65;;;8.10;96.70;;;;;;5072734;28;20132;-75
2021/01/05 13:10:15;;;;;;;1.80;1.52;;;8.10;96.70;;;;;;5052651;28;20040;-75
2021/01/05 13:12:43;;;;;;;1.98;1.63;;;8.10;96.70;;;;;;5053543;28;20153;-75
2021/01/05 13:15:11;;;;;;;1.88;1.35;;;8.00;96.70;;;;;;5067997;28;20552;-75
2021/01/05 13:17:40;;;;;;;1.75;1.23;;;8.00;96.70;;;;;;5058026;28;20052;-75
2021/01/05 13:20:11;;;;;;;2.65;2.45;;;8.10;96.70;;;;;;5054102;28;20047;-74
2021/01/05 13:22:40;;;;;;;2.78;2.17;;;8.20;96.70;;;;;;5039572;28;20052;-75